Time;durP1;ratioP1;P1;durP2;ratioP2;P2;SDS_P1;SDS_P2;PMS_P1;PMS_P2;Temp;Humidity;BMP_temperature;BMP_pressure;BME280_temperature;BME280_humidity;BME280_pressure;Samples;Min_cycle;Max_cycle;Signal;HPM_P1;HPM_P2
2023/01/06 00:02:06;;;;;;;27.30;11.00;;;9.60;99.90;;;;;;5074124;28;20123;-82
2023/01/06 00:04:33;;;;;;;21.73;10.13;;;9.60;99.90;;;;;;5091096;28;20499;-82
2023/01/06 00:06:59;;;;;;;19.00;9.35;;;9.60;99.90;;;;;;5057641;28;20582;-82
2023/01/06 00:09:26;;;;;;;18.65;9.48;;;9.60;99.90;;;;;;5074177;28;20040;-83
2023/01/06 00:11:52;;;;;;;21.08;8.82;;;9.60;99.90;;;;;;5073825;28;20041;-82
2023/01/06 00:14:19;;;;;;;27.13;9.55;;;9.60;99.90;;;;;;5074094;28;20114;-83
2023/01/06 00:16:46;;;;;;;25.77;9.23;;;9.60;99.90;;;;;;5107627;28;20040;-82
2023/01/06 00:19:13;;;;;;;27.45;9.57;;;9.60;99.90;;;;;;5073814;28;20059;-82
2023/01/06 00:21:41;;;;;;;20.92;9.68;;;9.60;99.90;;;;;;5090513;28;20123;-81
2023/01/06 00:24:08;;;;;;;26.17;9.93;;;9.60;99.90;;;;;;5090256;28;20405;-82
2023/01/06 00:26:35;;;;;;;24.27;10.93;;;9.60;99.90;;;;;;5073979;28;20036;-82
2023/01/06 00:29:02;;;;;;;23.80;11.25;;;9.60;99.90;;;;;;5074086;28;20492;-82
2023/01/06 00:31:29;;;;;;;24.40;11.23;;;9.60;99.90;;;;;;5093984;28;20123;-82
2023/01/06 00:33:56;;;;;;;31.35;11.57;;;9.60;99.90;;;;;;5077451;28;20071;-81
2023/01/06 00:36:24;;;;;;;32.42;11.90;;;9.60;99.90;;;;;;5110648;28;20044;-82
2023/01/06 00:38:50;;;;;;;26.05;11.45;;;9.60;99.90;;;;;;5110208;28;20503;-82
2023/01/06 00:44:03;;;;;;;34.10;12.43;;;9.60;99.90;;;;;;5128542;28;20445;-82
2023/01/06 00:46:32;;;;;;;32.10;12.82;;;9.70;99.90;;;;;;5101975;28;20036;-83
2023/01/06 00:49:00;;;;;;;33.40;12.90;;;9.70;99.90;;;;;;5104504;28;20040;-82
2023/01/06 00:51:27;;;;;;;31.65;13.05;;;9.70;99.90;;;;;;5110586;28;20036;-82
2023/01/06 00:53:54;;;;;;;32.08;13.48;;;9.70;99.90;;;;;;5102651;28;20047;-82
2023/01/06 00:56:21;;;;;;;36.60;13.88;;;9.70;99.90;;;;;;5111619;28;20051;-82
2023/01/06 00:58:47;;;;;;;31.58;13.10;;;9.70;99.90;;;;;;5112591;28;20118;-82
2023/01/06 01:01:14;;;;;;;36.47;13.43;;;9.70;99.90;;;;;;5117371;28;20476;-82
2023/01/06 01:03:41;;;;;;;39.08;13.27;;;9.80;99.90;;;;;;5125743;28;20039;-83
2023/01/06 01:06:08;;;;;;;38.38;13.80;;;9.70;99.90;;;;;;5113315;28;20043;-82
2023/01/06 01:08:35;;;;;;;38.63;13.25;;;9.80;99.90;;;;;;5129958;28;20051;-82
2023/01/06 01:11:07;;;;;;;44.63;13.43;;;9.80;99.90;;;;;;5118557;28;20066;-82
2023/01/06 01:13:34;;;;;;;36.22;14.15;;;9.70;99.90;;;;;;5109906;28;20075;-82
2023/01/06 01:16:06;;;;;;;30.65;13.55;;;9.70;99.90;;;;;;5110036;28;20122;-82
2023/01/06 01:18:34;;;;;;;30.33;13.05;;;9.80;99.90;;;;;;5126633;28;20032;-82
2023/01/06 01:21:01;;;;;;;37.95;13.65;;;9.80;99.90;;;;;;5109514;28;20087;-81
2023/01/06 01:23:28;;;;;;;27.15;12.00;;;9.80;99.90;;;;;;5095376;28;20037;-82
2023/01/06 01:25:56;;;;;;;33.92;13.65;;;9.80;99.90;;;;;;5105890;28;20640;-82
2023/01/06 01:28:23;;;;;;;30.80;12.63;;;9.80;99.90;;;;;;5105563;28;20075;-82
2023/01/06 01:30:58;;;;;;;30.70;12.43;;;9.80;99.90;;;;;;5057056;28;20037;-82
2023/01/06 01:33:24;;;;;;;24.30;11.45;;;9.80;99.90;;;;;;5092573;28;20120;-82
2023/01/06 01:35:51;;;;;;;29.50;11.57;;;9.80;99.90;;;;;;5093116;28;20117;-82
2023/01/06 01:38:18;;;;;;;27.20;12.07;;;9.80;99.90;;;;;;5109588;28;20036;-82
2023/01/06 01:40:48;;;;;;;24.10;12.30;;;9.80;99.90;;;;;;5109789;28;20043;-82
2023/01/06 01:43:16;;;;;;;27.27;12.48;;;9.80;99.90;;;;;;5111606;28;20044;-82
2023/01/06 01:45:48;;;;;;;23.55;11.00;;;9.80;99.90;;;;;;5089208;28;20484;-82
2023/01/06 01:48:21;;;;;;;22.55;10.68;;;9.90;99.90;;;;;;5089067;28;20029;-82
2023/01/06 01:50:54;;;;;;;23.33;10.75;;;9.80;99.90;;;;;;5106114;28;20048;-83
2023/01/06 01:53:34;;;;;;;18.17;9.07;;;9.80;99.90;;;;;;5107724;28;20047;-82
2023/01/06 01:56:06;;;;;;;17.20;7.72;;;9.80;99.90;;;;;;5109616;28;20039;-83
2023/01/06 01:58:52;;;;;;;19.33;8.90;;;9.80;99.90;;;;;;5109404;28;20087;-82
2023/01/06 02:01:19;;;;;;;22.00;7.45;;;9.80;99.90;;;;;;5125962;28;20035;-82
2023/01/06 02:03:46;;;;;;;14.18;6.95;;;9.80;99.90;;;;;;5103147;28;20039;-83
2023/01/06 02:06:17;;;;;;;21.42;6.85;;;9.80;99.90;;;;;;5092042;28;20071;-83
2023/01/06 02:09:12;;;;;;;16.00;6.57;;;9.80;99.90;;;;;;5109272;28;20052;-83
2023/01/06 02:11:42;;;;;;;12.27;6.53;;;9.80;99.90;;;;;;5109781;28;20040;-83
2023/01/06 02:14:11;;;;;;;14.18;6.38;;;9.80;99.90;;;;;;5093183;28;20040;-82
2023/01/06 02:16:43;;;;;;;16.05;7.05;;;9.80;99.90;;;;;;5109029;28;20040;-82
2023/01/06 02:19:28;;;;;;;14.70;6.70;;;9.80;99.90;;;;;;5108687;28;20044;-82
2023/01/06 02:22:19;;;;;;;16.45;7.85;;;9.80;99.90;;;;;;5105751;28;20036;-82
2023/01/06 02:25:24;;;;;;;13.10;6.97;;;9.80;99.90;;;;;;5109538;28;20036;-83
2023/01/06 02:28:16;;;;;;;12.88;7.20;;;9.80;99.90;;;;;;5092920;28;20044;-83
2023/01/06 02:31:01;;;;;;;15.05;7.10;;;9.80;99.90;;;;;;5109507;28;20075;-83
2023/01/06 02:33:45;;;;;;;15.95;6.55;;;9.90;99.90;;;;;;5125517;28;20067;-83
2023/01/06 02:36:39;;;;;;;14.23;6.88;;;9.90;99.90;;;;;;5112614;28;20433;-82
2023/01/06 02:39:37;;;;;;;13.98;6.28;;;9.90;99.90;;;;;;5129730;28;20047;-83
2023/01/06 02:42:21;;;;;;;11.13;6.53;;;9.90;99.90;;;;;;5112601;28;20068;-82
2023/01/06 02:45:01;;;;;;;11.80;6.22;;;9.90;99.90;;;;;;5109517;28;20454;-82
2023/01/06 02:47:55;;;;;;;16.58;6.55;;;9.90;99.90;;;;;;5092276;28;20036;-82
2023/01/06 02:50:47;;;;;;;12.95;6.00;;;9.80;99.90;;;;;;5091894;28;20182;-82
2023/01/06 02:53:23;;;;;;;15.60;5.88;;;9.90;99.90;;;;;;5113929;28;20403;-83
2023/01/06 02:55:54;;;;;;;15.73;6.50;;;9.80;99.90;;;;;;5112695;28;20040;-83
2023/01/06 02:58:28;;;;;;;13.75;5.75;;;9.90;99.90;;;;;;5112176;28;20082;-82
2023/01/06 03:01:05;;;;;;;14.18;5.35;;;9.80;99.90;;;;;;5112407;28;20040;-83
2023/01/06 03:03:35;;;;;;;14.02;5.90;;;9.80;99.90;;;;;;5111105;28;20036;-82
2023/01/06 03:06:08;;;;;;;14.00;5.80;;;9.80;99.90;;;;;;5111876;28;20563;-83
2023/01/06 03:08:36;;;;;;;15.05;5.63;;;9.80;99.90;;;;;;5128269;28;20105;-82
2023/01/06 03:11:03;;;;;;;10.38;5.38;;;9.80;99.90;;;;;;5128568;28;20511;-83
2023/01/06 03:13:47;;;;;;;11.88;5.55;;;9.80;99.90;;;;;;5092666;28;20040;-83
2023/01/06 03:16:15;;;;;;;12.35;5.65;;;9.80;99.90;;;;;;5108517;28;20048;-82
2023/01/06 03:18:43;;;;;;;12.35;5.15;;;9.80;99.90;;;;;;5091699;28;20052;-83
2023/01/06 03:21:17;;;;;;;10.32;5.70;;;9.80;99.90;;;;;;5092406;28;20094;-82
2023/01/06 03:23:45;;;;;;;10.80;5.35;;;9.80;99.90;;;;;;5109740;28;20515;-82
2023/01/06 03:26:13;;;;;;;12.38;5.57;;;9.80;99.90;;;;;;5095130;28;20051;-83
2023/01/06 03:28:39;;;;;;;7.95;5.18;;;9.80;99.90;;;;;;5078618;28;20084;-82
2023/01/06 03:31:33;;;;;;;10.52;5.00;;;9.80;99.90;;;;;;5111706;28;20040;-82
2023/01/06 03:34:12;;;;;;;8.55;4.70;;;9.80;99.90;;;;;;5110979;28;20863;-82
2023/01/06 03:36:52;;;;;;;12.25;4.72;;;9.80;99.90;;;;;;5108744;28;20403;-82
2023/01/06 03:39:46;;;;;;;13.40;6.00;;;9.80;99.90;;;;;;5091250;28;20044;-82
2023/01/06 03:46:01;;;;;;;8.80;5.47;;;9.90;99.90;;;;;;5107870;28;20044;-82
2023/01/06 03:49:00;;;;;;;12.38;5.25;;;9.90;99.90;;;;;;5107749;28;20028;-82
2023/01/06 03:51:57;;;;;;;9.05;5.05;;;9.80;99.90;;;;;;5090973;28;20045;-82
2023/01/06 03:54:42;;;;;;;10.30;5.20;;;9.80;99.90;;;;;;5090832;28;20076;-82
2023/01/06 03:57:22;;;;;;;11.68;4.72;;;9.80;99.90;;;;;;5091239;28;20047;-83
2023/01/06 03:59:57;;;;;;;8.95;4.50;;;9.80;99.90;;;;;;5091144;28;20497;-83
2023/01/06 04:02:24;;;;;;;9.33;4.40;;;9.80;99.90;;;;;;5091028;28;20037;-82
2023/01/06 04:05:09;;;;;;;11.77;4.50;;;9.80;99.90;;;;;;5107853;28;20399;-83
2023/01/06 04:07:40;;;;;;;8.32;4.43;;;9.80;99.90;;;;;;5090622;28;20061;-83
2023/01/06 04:10:08;;;;;;;10.75;4.07;;;9.80;99.90;;;;;;5107984;28;20178;-83
2023/01/06 04:12:38;;;;;;;8.90;4.10;;;9.80;99.90;;;;;;5107669;28;20037;-83
2023/01/06 04:15:10;;;;;;;9.50;4.00;;;9.80;99.90;;;;;;5074873;28;20043;-83
2023/01/06 04:17:38;;;;;;;10.23;4.18;;;9.80;99.90;;;;;;5107194;28;20849;-82
2023/01/06 04:20:07;;;;;;;12.48;4.15;;;9.80;99.90;;;;;;5074056;28;20048;-83
2023/01/06 04:22:34;;;;;;;9.60;4.60;;;9.70;99.90;;;;;;5106904;28;20075;-82
2023/01/06 04:25:01;;;;;;;10.50;4.70;;;9.80;99.90;;;;;;5073900;28;20485;-83
2023/01/06 04:27:28;;;;;;;11.63;5.07;;;9.80;99.90;;;;;;5103192;28;20036;-83
2023/01/06 04:29:55;;;;;;;10.02;4.93;;;9.80;99.90;;;;;;5093841;28;20634;-83
2023/01/06 04:32:21;;;;;;;9.40;5.25;;;9.80;99.90;;;;;;5110702;28;20493;-83
2023/01/06 04:34:48;;;;;;;8.52;5.00;;;9.80;99.90;;;;;;5077256;28;20046;-83
2023/01/06 04:37:15;;;;;;;10.15;5.07;;;9.80;99.90;;;;;;5093788;28;20040;-83
2023/01/06 04:39:41;;;;;;;11.95;5.07;;;9.80;99.90;;;;;;5093269;28;20488;-83
2023/01/06 04:42:08;;;;;;;8.57;5.10;;;9.80;99.90;;;;;;5110218;28;20460;-83
2023/01/06 04:44:35;;;;;;;9.65;5.30;;;9.70;99.90;;;;;;5092793;28;20776;-82
2023/01/06 04:47:02;;;;;;;11.35;5.35;;;9.70;99.90;;;;;;5090548;28;20040;-83
2023/01/06 04:49:29;;;;;;;9.82;5.30;;;9.70;99.90;;;;;;5089732;28;20135;-83
2023/01/06 04:51:55;;;;;;;9.45;5.50;;;9.70;99.90;;;;;;5105793;28;20507;-83
2023/01/06 04:54:22;;;;;;;10.48;5.50;;;9.70;99.90;;;;;;5109977;28;20496;-83
2023/01/06 04:56:49;;;;;;;9.85;5.55;;;9.70;99.90;;;;;;5093637;28;20130;-83
2023/01/06 04:59:15;;;;;;;9.23;5.57;;;9.70;99.90;;;;;;5093643;28;20048;-83
2023/01/06 05:01:42;;;;;;;9.40;5.75;;;9.70;99.90;;;;;;5110133;28;20032;-83
2023/01/06 05:04:09;;;;;;;10.70;5.75;;;9.70;99.90;;;;;;5076721;28;20123;-83
2023/01/06 05:06:38;;;;;;;13.60;6.60;;;9.70;99.90;;;;;;5109926;28;20096;-83
2023/01/06 05:09:05;;;;;;;10.38;6.50;;;9.70;99.90;;;;;;5093408;28;20052;-83
2023/01/06 05:11:32;;;;;;;13.23;7.22;;;9.70;99.90;;;;;;5109766;28;20062;-82
2023/01/06 05:13:59;;;;;;;11.20;7.13;;;9.70;99.90;;;;;;5110312;28;20488;-83
2023/01/06 05:16:28;;;;;;;12.63;7.25;;;9.70;99.90;;;;;;5093292;28;20071;-83
2023/01/06 05:18:55;;;;;;;9.18;6.18;;;9.70;99.90;;;;;;5107164;28;20051;-83
2023/01/06 05:21:24;;;;;;;11.40;6.70;;;9.70;99.90;;;;;;5126850;28;20040;-83
2023/01/06 05:23:51;;;;;;;11.55;6.82;;;9.70;99.90;;;;;;5093112;28;20428;-83
2023/01/06 05:26:20;;;;;;;12.50;6.80;;;9.70;99.90;;;;;;5110039;28;20036;-83
2023/01/06 05:28:47;;;;;;;9.15;6.47;;;9.70;99.90;;;;;;5107932;28;20054;-82
2023/01/06 05:31:14;;;;;;;11.95;7.05;;;9.70;99.90;;;;;;5126809;28;20123;-83
2023/01/06 05:33:41;;;;;;;10.95;6.75;;;9.70;99.90;;;;;;5109368;28;20050;-83
2023/01/06 05:36:10;;;;;;;9.88;6.65;;;9.60;99.90;;;;;;5076433;28;20498;-83
2023/01/06 05:38:37;;;;;;;10.80;6.82;;;9.70;99.90;;;;;;5108965;28;20047;-82
2023/01/06 05:41:04;;;;;;;11.15;6.85;;;9.70;99.90;;;;;;5088974;28;20047;-83
2023/01/06 05:43:33;;;;;;;14.63;7.00;;;9.70;99.90;;;;;;5073104;28;20044;-83
2023/01/06 05:46:07;;;;;;;12.43;6.65;;;9.70;99.90;;;;;;5089431;28;20048;-82
2023/01/06 05:48:34;;;;;;;8.77;6.03;;;9.70;99.90;;;;;;5072748;28;20033;-82
2023/01/06 05:51:06;;;;;;;11.25;5.68;;;9.70;99.90;;;;;;5089429;28;20076;-83
2023/01/06 05:53:35;;;;;;;9.02;5.80;;;9.70;99.90;;;;;;5089481;28;20040;-82
2023/01/06 05:56:03;;;;;;;6.88;4.80;;;9.70;99.90;;;;;;5073878;28;20052;-83
2023/01/06 05:58:32;;;;;;;8.80;5.53;;;9.70;99.90;;;;;;5093485;28;20519;-83
2023/01/06 06:01:00;;;;;;;7.55;4.85;;;9.70;99.90;;;;;;5092911;28;20493;-83
2023/01/06 06:03:26;;;;;;;8.35;4.65;;;9.70;99.90;;;;;;5076932;28;20044;-83
2023/01/06 06:05:53;;;;;;;9.27;4.55;;;9.80;99.90;;;;;;5076828;28;20049;-83
2023/01/06 06:08:20;;;;;;;8.75;4.88;;;9.70;99.90;;;;;;5076637;28;20063;-83
2023/01/06 06:10:46;;;;;;;8.95;4.35;;;9.70;99.90;;;;;;5082261;28;20043;-83
2023/01/06 06:13:13;;;;;;;9.48;4.10;;;9.80;99.90;;;;;;5080338;28;20051;-83
2023/01/06 06:15:39;;;;;;;8.38;4.00;;;9.80;99.90;;;;;;5113446;28;20076;-82
2023/01/06 06:18:06;;;;;;;6.60;3.90;;;9.80;99.90;;;;;;5079909;28;20075;-83
2023/01/06 06:20:33;;;;;;;5.32;3.78;;;9.80;99.90;;;;;;5076404;28;20067;-82
2023/01/06 06:22:59;;;;;;;7.20;3.72;;;9.80;99.90;;;;;;5092547;28;20040;-82
2023/01/06 06:25:28;;;;;;;7.22;4.00;;;9.80;99.90;;;;;;5076155;28;20072;-83
2023/01/06 06:27:58;;;;;;;7.60;3.70;;;9.80;99.90;;;;;;5075959;28;20033;-82
2023/01/06 06:30:25;;;;;;;5.22;3.80;;;9.70;99.90;;;;;;5076268;28;20496;-83
2023/01/06 06:32:52;;;;;;;13.10;4.30;;;9.70;99.90;;;;;;5094743;28;20074;-82
2023/01/06 06:35:18;;;;;;;9.45;4.43;;;9.70;99.90;;;;;;5076813;28;20036;-83
2023/01/06 06:37:45;;;;;;;11.85;5.20;;;9.60;99.90;;;;;;5092294;28;20127;-82
2023/01/06 06:40:12;;;;;;;6.65;4.78;;;9.60;99.90;;;;;;5092591;28;20451;-82
2023/01/06 06:42:38;;;;;;;6.47;4.93;;;9.60;99.90;;;;;;5092838;28;20028;-82
2023/01/06 06:45:06;;;;;;;8.27;5.10;;;9.60;99.90;;;;;;5089408;28;20102;-83
2023/01/06 06:47:32;;;;;;;11.20;5.90;;;9.50;99.90;;;;;;5059447;28;20571;-82
2023/01/06 06:49:59;;;;;;;8.40;5.85;;;9.50;99.90;;;;;;5075812;28;20087;-82
2023/01/06 06:52:25;;;;;;;8.75;5.75;;;9.50;99.90;;;;;;5081665;28;20101;-82
2023/01/06 06:54:52;;;;;;;8.65;5.78;;;9.50;99.90;;;;;;5092721;28;20048;-82
2023/01/06 06:57:19;;;;;;;10.13;6.07;;;9.50;99.90;;;;;;5095863;28;20094;-82
2023/01/06 06:59:45;;;;;;;6.95;5.47;;;9.50;99.90;;;;;;5105528;28;20080;-82
2023/01/06 07:02:12;;;;;;;10.05;6.10;;;9.50;99.90;;;;;;5097163;28;20032;-82
2023/01/06 07:04:39;;;;;;;7.72;4.95;;;9.50;99.90;;;;;;5097364;28;20071;-82
2023/01/06 07:07:05;;;;;;;12.07;6.07;;;9.50;99.90;;;;;;5097786;28;20048;-82
2023/01/06 07:09:32;;;;;;;7.30;5.57;;;9.40;99.90;;;;;;5121166;28;20419;-82
2023/01/06 07:11:59;;;;;;;12.88;5.70;;;9.50;99.90;;;;;;5104815;28;20043;-82
2023/01/06 07:14:25;;;;;;;9.68;5.70;;;9.50;99.90;;;;;;5104086;28;20059;-85
2023/01/06 07:16:52;;;;;;;8.75;5.25;;;9.40;99.90;;;;;;5089130;28;20049;-82
2023/01/06 07:19:19;;;;;;;7.60;5.30;;;9.40;99.90;;;;;;5095714;28;20040;-82
2023/01/06 07:21:45;;;;;;;8.18;5.28;;;9.40;99.90;;;;;;5109203;28;20473;-82
2023/01/06 07:24:12;;;;;;;11.57;5.30;;;9.40;99.90;;;;;;5087345;28;20438;-82
2023/01/06 07:26:39;;;;;;;10.10;5.63;;;9.40;99.90;;;;;;5105546;28;20459;-82
2023/01/06 07:29:05;;;;;;;9.18;4.93;;;9.40;99.90;;;;;;5080946;28;20492;-82
2023/01/06 07:31:32;;;;;;;10.27;4.68;;;9.40;99.90;;;;;;5099133;28;20098;-83
2023/01/06 07:33:59;;;;;;;8.45;5.15;;;9.30;99.90;;;;;;5106663;28;20040;-82
2023/01/06 07:36:25;;;;;;;7.35;5.00;;;9.40;99.90;;;;;;5113451;28;20462;-83
2023/01/06 07:38:52;;;;;;;7.95;4.70;;;9.30;99.90;;;;;;5112110;28;20045;-82
2023/01/06 07:41:19;;;;;;;9.50;5.00;;;9.30;99.90;;;;;;5098771;28;20047;-82
2023/01/06 07:43:46;;;;;;;9.35;5.47;;;9.40;99.90;;;;;;5103830;28;20389;-82
2023/01/06 07:46:12;;;;;;;10.38;5.38;;;9.30;99.90;;;;;;5097349;28;20043;-82
2023/01/06 07:48:39;;;;;;;6.70;4.18;;;9.30;99.90;;;;;;5093657;28;20108;-82
2023/01/06 07:51:06;;;;;;;8.75;4.90;;;9.30;99.90;;;;;;5100801;28;20051;-82
2023/01/06 07:53:32;;;;;;;12.13;4.93;;;9.30;99.90;;;;;;5091439;28;20105;-82
2023/01/06 07:55:59;;;;;;;9.35;5.00;;;9.30;99.90;;;;;;5094732;28;20048;-82
2023/01/06 07:58:26;;;;;;;8.02;4.85;;;9.30;99.90;;;;;;5111998;28;20046;-82
2023/01/06 08:00:53;;;;;;;8.95;4.32;;;9.30;99.90;;;;;;5119110;28;20449;-82
2023/01/06 08:03:19;;;;;;;6.28;3.88;;;9.30;99.90;;;;;;5099079;28;20115;-82
2023/01/06 08:05:46;;;;;;;6.20;3.70;;;9.30;99.90;;;;;;5100086;28;20496;-82
2023/01/06 08:08:13;;;;;;;12.18;3.70;;;9.40;99.90;;;;;;5096725;28;20048;-82
2023/01/06 08:10:41;;;;;;;5.38;3.50;;;9.40;99.90;;;;;;5110859;28;20101;-82
2023/01/06 08:13:08;;;;;;;7.68;3.50;;;9.40;99.90;;;;;;5110656;28;20484;-83
2023/01/06 08:15:36;;;;;;;6.68;3.50;;;9.40;99.90;;;;;;5107565;28;20058;-83
2023/01/06 08:18:03;;;;;;;5.38;3.17;;;9.40;99.90;;;;;;5108875;28;20043;-84
2023/01/06 08:20:30;;;;;;;4.97;3.00;;;9.50;99.90;;;;;;5131001;28;20032;-84
2023/01/06 08:22:57;;;;;;;5.70;2.20;;;9.40;99.90;;;;;;5131123;28;20104;-84
2023/01/06 08:25:24;;;;;;;4.88;1.95;;;9.50;99.90;;;;;;5114106;28;20035;-84
2023/01/06 08:27:51;;;;;;;2.92;1.60;;;9.50;99.90;;;;;;5114606;28;20050;-85
2023/01/06 08:30:20;;;;;;;3.25;1.25;;;9.40;99.90;;;;;;5113608;28;20165;-83
2023/01/06 08:32:47;;;;;;;4.20;1.33;;;9.40;99.90;;;;;;5147510;28;20078;-84
2023/01/06 08:35:15;;;;;;;5.05;1.25;;;9.30;99.90;;;;;;5130133;28;20483;-85
2023/01/06 08:37:42;;;;;;;4.13;0.98;;;9.10;99.90;;;;;;5113799;28;20135;-84
2023/01/06 08:40:09;;;;;;;1.45;0.70;;;9.10;99.90;;;;;;5147060;28;20119;-84
2023/01/06 08:42:35;;;;;;;2.33;0.80;;;9.00;99.90;;;;;;5113822;28;20104;-83
2023/01/06 08:45:02;;;;;;;2.95;0.90;;;8.90;99.90;;;;;;5130518;28;20040;-83
2023/01/06 08:47:29;;;;;;;0.70;0.50;;;8.80;99.90;;;;;;5104750;28;20039;-84
2023/01/06 08:49:56;;;;;;;2.88;0.75;;;8.80;99.90;;;;;;5076597;28;20047;-82
2023/01/06 08:52:22;;;;;;;2.08;0.70;;;8.70;99.90;;;;;;5090366;28;20033;-84
2023/01/06 08:54:49;;;;;;;2.55;0.80;;;8.70;99.90;;;;;;5101748;28;20118;-84
2023/01/06 08:57:16;;;;;;;3.33;0.80;;;8.70;99.90;;;;;;5089406;28;20086;-84
2023/01/06 08:59:43;;;;;;;2.80;0.80;;;8.60;99.90;;;;;;5086336;28;20493;-84
2023/01/06 09:02:10;;;;;;;1.08;0.55;;;8.60;99.90;;;;;;5078713;28;20086;-84
2023/01/06 09:04:36;;;;;;;2.10;0.68;;;8.50;99.90;;;;;;5111204;28;20039;-84
2023/01/06 09:07:03;;;;;;;5.03;0.75;;;8.50;99.90;;;;;;5129820;28;20511;-84
2023/01/06 09:09:30;;;;;;;3.55;0.70;;;8.50;99.90;;;;;;5096352;28;20051;-84
2023/01/06 09:11:57;;;;;;;1.88;0.55;;;8.40;99.90;;;;;;5100569;28;20128;-84
2023/01/06 09:14:23;;;;;;;2.50;0.93;;;8.40;99.90;;;;;;5095646;28;20093;-84
2023/01/06 09:16:50;;;;;;;1.27;0.68;;;8.40;99.90;;;;;;5109118;28;20075;-84
2023/01/06 09:19:19;;;;;;;1.33;0.60;;;8.40;99.90;;;;;;5078712;28;20036;-84
2023/01/06 09:21:46;;;;;;;5.05;0.80;;;8.40;99.90;;;;;;5092839;28;20037;-84
2023/01/06 09:24:13;;;;;;;2.13;0.80;;;8.40;99.90;;;;;;5083070;28;20385;-84
2023/01/06 09:26:40;;;;;;;2.22;0.88;;;8.40;99.90;;;;;;5109528;28;20036;-85
2023/01/06 09:29:07;;;;;;;2.25;0.63;;;8.40;99.90;;;;;;5091765;28;20161;-84
2023/01/06 09:31:34;;;;;;;2.92;0.63;;;8.30;99.90;;;;;;5074326;28;20040;-84
2023/01/06 09:34:00;;;;;;;3.45;0.50;;;8.30;99.90;;;;;;5108391;28;20040;-84
2023/01/06 09:36:27;;;;;;;5.70;1.17;;;8.30;99.90;;;;;;5075784;28;20035;-85
2023/01/06 09:38:54;;;;;;;4.57;0.80;;;8.30;99.90;;;;;;5091031;28;20106;-85
2023/01/06 09:41:45;;;;;;;4.30;0.70;;;8.30;99.90;;;;;;5092009;28;20042;-84
2023/01/06 09:44:24;;;;;;;6.15;0.60;;;8.30;99.90;;;;;;5109483;28;20051;-86
2023/01/06 09:46:51;;;;;;;2.00;0.50;;;8.30;99.90;;;;;;5109355;28;20036;-85
2023/01/06 09:49:30;;;;;;;5.88;0.88;;;8.30;99.90;;;;;;5108802;28;20040;-85
2023/01/06 09:52:01;;;;;;;4.20;0.95;;;8.30;99.90;;;;;;5122766;28;20044;-85
2023/01/06 09:54:39;;;;;;;5.20;0.90;;;8.20;99.90;;;;;;5108704;28;20645;-85
2023/01/06 09:57:20;;;;;;;5.03;1.00;;;8.20;99.90;;;;;;5088305;28;20385;-85
2023/01/06 10:00:16;;;;;;;7.47;0.88;;;8.20;99.90;;;;;;5103559;28;20036;-85
2023/01/06 10:02:42;;;;;;;5.90;1.17;;;8.30;99.90;;;;;;5109322;28;20151;-85
2023/01/06 10:05:19;;;;;;;6.10;0.90;;;8.30;99.90;;;;;;5092374;28;20119;-84
2023/01/06 10:07:59;;;;;;;6.82;0.93;;;8.30;99.90;;;;;;5108517;28;20032;-85
2023/01/06 10:10:37;;;;;;;4.45;0.90;;;8.30;99.90;;;;;;5125707;28;20125;-86
2023/01/06 10:13:09;;;;;;;8.38;1.10;;;8.30;99.90;;;;;;5125908;28;20047;-84
2023/01/06 10:15:41;;;;;;;7.03;1.20;;;8.40;99.90;;;;;;5137656;28;20042;-85
2023/01/06 10:18:30;;;;;;;6.10;1.20;;;8.40;99.90;;;;;;5123338;28;20036;-84
2023/01/06 10:20:57;;;;;;;9.85;1.10;;;8.40;99.90;;;;;;5143994;28;20051;-85
2023/01/06 10:23:42;;;;;;;5.68;1.13;;;8.40;99.90;;;;;;5107983;28;20042;-86
2023/01/06 10:26:13;;;;;;;7.20;1.47;;;8.50;99.90;;;;;;5135803;28;20412;-85
2023/01/06 10:28:46;;;;;;;5.45;1.02;;;8.50;99.90;;;;;;5125532;28;20270;-85
2023/01/06 10:31:16;;;;;;;9.43;1.17;;;8.50;99.90;;;;;;5128781;28;20039;-84
2023/01/06 10:33:51;;;;;;;5.35;1.52;;;8.50;99.90;;;;;;5129450;28;20122;-85
2023/01/06 10:36:26;;;;;;;7.93;0.90;;;8.50;99.90;;;;;;5142461;28;20055;-85
2023/01/06 10:38:54;;;;;;;8.35;1.30;;;8.50;99.90;;;;;;5114976;28;20054;-84
2023/01/06 10:41:35;;;;;;;6.78;1.10;;;8.50;99.90;;;;;;5093807;28;20040;-85
2023/01/06 10:44:02;;;;;;;6.55;1.17;;;8.50;99.90;;;;;;5129007;28;20040;-84
2023/01/06 10:46:34;;;;;;;5.45;1.25;;;8.50;99.90;;;;;;5122146;28;20044;-84
2023/01/06 10:49:02;;;;;;;6.07;1.42;;;8.50;99.90;;;;;;5126209;28;20119;-84
2023/01/06 10:51:39;;;;;;;8.45;1.08;;;8.50;99.90;;;;;;5110170;28;20035;-85
2023/01/06 10:54:10;;;;;;;5.47;1.08;;;8.50;99.90;;;;;;5149425;28;20560;-83
2023/01/06 10:56:41;;;;;;;7.97;0.98;;;8.60;99.90;;;;;;5132940;28;20381;-84
2023/01/06 10:59:10;;;;;;;12.57;1.15;;;8.60;99.90;;;;;;5115506;28;20113;-84
2023/01/06 11:01:52;;;;;;;7.38;1.15;;;8.70;99.90;;;;;;5112047;28;20040;-84
2023/01/06 11:04:20;;;;;;;7.63;1.17;;;8.70;99.90;;;;;;5113658;28;20031;-84
2023/01/06 11:06:53;;;;;;;8.13;1.70;;;8.70;99.90;;;;;;5115760;28;20054;-83
2023/01/06 11:09:48;;;;;;;8.48;1.20;;;8.70;99.90;;;;;;5107440;28;20091;-84
2023/01/06 11:12:21;;;;;;;7.43;1.10;;;8.70;99.90;;;;;;5091676;28;20063;-85
2023/01/06 11:15:00;;;;;;;6.60;1.45;;;8.70;99.90;;;;;;5117937;28;20092;-84
2023/01/06 11:17:28;;;;;;;6.22;1.00;;;8.80;99.90;;;;;;5122202;28;20476;-84
2023/01/06 11:20:12;;;;;;;7.55;1.40;;;8.80;99.90;;;;;;5100450;28;20036;-83
2023/01/06 11:22:41;;;;;;;7.55;1.13;;;8.80;99.90;;;;;;5129255;28;20040;-83
2023/01/06 11:25:20;;;;;;;8.13;1.30;;;8.90;99.90;;;;;;5133258;28;20404;-83
2023/01/06 11:28:07;;;;;;;4.88;1.38;;;8.90;99.90;;;;;;5110854;28;20127;-84
2023/01/06 11:30:51;;;;;;;7.28;1.05;;;9.00;99.90;;;;;;5075657;28;20416;-84
2023/01/06 11:33:24;;;;;;;3.42;0.73;;;9.00;99.90;;;;;;5091040;28;20086;-84
2023/01/06 11:35:51;;;;;;;7.78;1.10;;;9.00;99.90;;;;;;5122853;28;20044;-83
2023/01/06 11:38:20;;;;;;;6.57;1.13;;;9.00;99.90;;;;;;5094158;28;20039;-84
2023/01/06 11:40:51;;;;;;;8.07;1.58;;;8.90;99.90;;;;;;5127252;28;20044;-82
2023/01/06 11:43:27;;;;;;;4.80;1.00;;;8.90;99.90;;;;;;5110953;28;20437;-84
2023/01/06 11:46:01;;;;;;;7.40;1.17;;;8.80;99.90;;;;;;5115428;28;20756;-83
2023/01/06 11:48:36;;;;;;;7.10;1.98;;;8.90;99.90;;;;;;5111446;28;20038;-84
2023/01/06 11:51:04;;;;;;;5.77;1.30;;;8.90;99.90;;;;;;5100116;28;20052;-83
2023/01/06 11:53:33;;;;;;;8.07;1.10;;;8.90;99.90;;;;;;5073840;28;20056;-83
2023/01/06 11:56:02;;;;;;;9.10;1.30;;;9.00;99.90;;;;;;5091212;28;20072;-84
2023/01/06 11:58:54;;;;;;;9.63;1.27;;;8.90;99.90;;;;;;5107575;28;20040;-84
2023/01/06 12:01:34;;;;;;;5.95;1.30;;;9.00;99.90;;;;;;5090881;28;20037;-85
2023/01/06 12:04:33;;;;;;;7.38;1.45;;;8.90;99.90;;;;;;5108119;28;20052;-84
2023/01/06 12:07:23;;;;;;;8.70;1.42;;;9.00;99.90;;;;;;5111418;28;20484;-84
2023/01/06 12:09:51;;;;;;;6.05;1.15;;;9.10;99.90;;;;;;5091164;28;20412;-85
2023/01/06 12:12:22;;;;;;;6.57;1.30;;;9.20;99.90;;;;;;5091033;28;20044;-85
2023/01/06 12:14:48;;;;;;;7.75;1.65;;;9.30;99.90;;;;;;5139200;28;20044;-84
2023/01/06 12:17:32;;;;;;;5.75;1.05;;;9.30;99.90;;;;;;5120336;28;20036;-83
2023/01/06 12:20:12;;;;;;;6.03;1.33;;;9.30;99.90;;;;;;5147015;28;20122;-85
2023/01/06 12:22:56;;;;;;;5.60;1.40;;;9.30;99.90;;;;;;5113212;28;20416;-84
2023/01/06 12:25:31;;;;;;;6.72;1.27;;;9.30;99.90;;;;;;5114675;28;20079;-84
2023/01/06 12:28:03;;;;;;;8.32;1.63;;;9.20;99.90;;;;;;5125400;28;20039;-84
2023/01/06 12:31:14;;;;;;;9.65;1.33;;;9.20;99.90;;;;;;5118469;28;20062;-84
2023/01/06 12:34:02;;;;;;;8.68;1.33;;;9.20;99.90;;;;;;5091942;28;20377;-84
2023/01/06 12:36:58;;;;;;;10.40;1.90;;;9.10;99.90;;;;;;5142146;28;20051;-84
2023/01/06 12:39:46;;;;;;;7.43;1.33;;;9.10;99.90;;;;;;5138978;28;20716;-84
2023/01/06 12:42:36;;;;;;;5.38;1.15;;;9.10;99.90;;;;;;5130928;28;20408;-84
2023/01/06 12:45:16;;;;;;;5.90;1.00;;;9.00;99.90;;;;;;5131030;28;20081;-84
2023/01/06 12:47:51;;;;;;;7.20;1.42;;;9.00;99.90;;;;;;5112126;28;20531;-85
2023/01/06 12:50:33;;;;;;;6.57;1.10;;;9.00;99.90;;;;;;5123578;28;20040;-84
2023/01/06 12:53:22;;;;;;;7.85;1.45;;;9.00;99.90;;;;;;5106696;28;20409;-85
2023/01/06 12:56:21;;;;;;;5.47;1.00;;;9.00;99.90;;;;;;5090420;28;20047;-85
2023/01/06 12:58:54;;;;;;;3.35;1.00;;;9.00;99.90;;;;;;5103298;28;20514;-85
2023/01/06 13:01:51;;;;;;;9.65;1.10;;;9.00;99.90;;;;;;5126854;28;20040;-84
2023/01/06 13:04:33;;;;;;;6.97;1.27;;;9.00;99.90;;;;;;5110339;28;20094;-85
2023/01/06 13:07:09;;;;;;;9.82;1.23;;;8.90;99.90;;;;;;5109265;28;20039;-84
2023/01/06 13:09:46;;;;;;;9.23;1.48;;;8.90;99.90;;;;;;5110894;28;20066;-85
2023/01/06 13:12:46;;;;;;;8.40;1.27;;;9.00;99.90;;;;;;5106609;28;20496;-85
2023/01/06 13:15:21;;;;;;;7.95;1.50;;;9.00;99.90;;;;;;5105021;28;20048;-85
2023/01/06 13:18:13;;;;;;;8.95;1.35;;;9.00;99.90;;;;;;5112178;28;20040;-84
2023/01/06 13:20:45;;;;;;;5.80;0.90;;;9.10;99.90;;;;;;5108364;28;20058;-85
2023/01/06 13:23:29;;;;;;;10.50;1.52;;;9.10;99.90;;;;;;5109728;28;20056;-87
2023/01/06 13:26:21;;;;;;;8.20;1.48;;;9.10;99.90;;;;;;5114394;28;20043;-84